createdAt,value
2019-02-02T00:07:27.689Z,89.10
2019-02-02T00:17:32.731Z,90.60
2019-02-02T00:27:41.395Z,90.50
2019-02-02T00:37:44.606Z,88.20
2019-02-02T00:47:49.934Z,87.90
2019-02-02T00:57:55.136Z,88.90
2019-02-02T01:08:00.284Z,90.00
2019-02-02T01:18:05.691Z,90.20
2019-02-02T01:28:10.889Z,90.00
2019-02-02T01:38:16.005Z,90.50
2019-02-02T01:48:21.254Z,90.30
2019-02-02T01:58:26.475Z,90.20
2019-02-02T02:08:31.765Z,90.00
2019-02-02T02:18:36.728Z,90.40
2019-02-02T02:28:41.802Z,90.30
2019-02-02T02:38:46.983Z,90.10
2019-02-02T02:48:52.170Z,90.20
2019-02-02T02:58:57.283Z,89.50
2019-02-02T03:09:02.776Z,89.00
2019-02-02T03:19:09.102Z,88.90
2019-02-02T03:29:14.296Z,89.00
2019-02-02T03:39:19.466Z,88.30
2019-02-02T03:49:24.667Z,87.50
2019-02-02T03:59:29.992Z,86.90
2019-02-02T04:09:35.162Z,85.80
2019-02-02T04:19:40.335Z,85.70
2019-02-02T04:29:45.410Z,85.40
2019-02-02T04:39:50.490Z,85.10
2019-02-02T04:49:55.585Z,84.50
2019-02-02T05:00:02.610Z,85.10
2019-02-02T05:10:10.999Z,85.10
2019-02-02T05:20:20.855Z,85.30
2019-02-02T05:30:29.239Z,84.70
2019-02-02T05:40:46.325Z,84.40
2019-02-02T05:50:51.589Z,84.00
2019-02-02T06:00:56.884Z,85.20
2019-02-02T06:11:02.468Z,84.70
2019-02-02T06:21:07.718Z,85.90
2019-02-02T06:31:12.889Z,85.30
2019-02-02T06:41:18.010Z,83.80
2019-02-02T06:51:23.205Z,84.00
2019-02-02T07:01:28.405Z,84.20
2019-02-02T07:11:33.613Z,83.10
2019-02-02T07:21:38.704Z,83.60
2019-02-02T07:31:43.925Z,82.30
2019-02-02T07:41:48.974Z,82.10
2019-02-02T07:51:54.184Z,80.20
2019-02-02T08:02:12.865Z,79.70
2019-02-02T08:12:19.531Z,79.40
2019-02-02T08:22:24.737Z,77.00
2019-02-02T08:32:29.860Z,76.10
2019-02-02T08:42:34.814Z,74.20
2019-02-02T08:52:39.940Z,73.10
2019-02-02T09:02:45.193Z,72.00
2019-02-02T09:12:50.610Z,69.50
2019-02-02T09:23:02.907Z,69.00
2019-02-02T09:33:02.451Z,67.10
2019-02-02T09:43:07.651Z,67.30
2019-02-02T09:53:13.084Z,66.60
2019-02-02T10:03:18.004Z,66.30
2019-02-02T10:13:29.489Z,65.50
2019-02-02T10:23:34.533Z,65.80
2019-02-02T10:33:39.702Z,66.20
2019-02-02T10:44:40.389Z,66.60
2019-02-02T10:54:45.546Z,64.20
2019-02-02T11:04:53.415Z,60.60
2019-02-02T11:14:57.587Z,62.50
2019-02-02T11:25:02.849Z,61.30
2019-02-02T11:35:10.786Z,61.70
2019-02-02T11:45:17.058Z,60.70
2019-02-02T11:55:24.035Z,60.50
2019-02-02T12:05:29.511Z,62.30
2019-02-02T12:15:35.208Z,63.80
2019-02-02T12:25:40.349Z,65.20
2019-02-02T12:35:45.646Z,64.80
2019-02-02T12:45:51.227Z,64.20
2019-02-02T12:55:59.568Z,63.80
2019-02-02T13:06:05.069Z,62.00
2019-02-02T13:16:11.566Z,62.00
2019-02-02T13:26:16.894Z,61.30
2019-02-02T13:36:22.206Z,60.40
2019-02-02T13:46:27.498Z,59.90
2019-02-02T13:56:32.861Z,61.10
2019-02-02T14:06:38.256Z,60.80
2019-02-02T14:16:43.539Z,61.20
2019-02-02T14:26:49.138Z,61.20
2019-02-02T14:36:54.485Z,61.70
2019-02-02T14:47:17.493Z,61.70
2019-02-02T14:57:24.450Z,61.90
2019-02-02T15:07:29.939Z,60.80
2019-02-02T15:17:39.210Z,61.80
2019-02-02T15:27:44.760Z,63.10
2019-02-02T15:37:50.148Z,64.10
2019-02-02T15:47:55.491Z,63.80
2019-02-02T15:58:01.796Z,65.50
2019-02-02T16:08:10.210Z,64.40
2019-02-02T16:18:20.433Z,65.00
2019-02-02T16:28:26.192Z,66.50
2019-02-02T16:38:31.631Z,68.50
2019-02-02T16:48:37.209Z,68.60
2019-02-02T16:58:42.634Z,69.40
2019-02-02T17:08:48.098Z,70.10
2019-02-02T17:18:53.533Z,71.80
2019-02-02T17:29:00.070Z,71.70
2019-02-02T17:39:06.370Z,74.10
2019-02-02T17:49:11.791Z,74.80
2019-02-02T17:59:17.248Z,76.90
2019-02-02T18:09:23.228Z,78.50
2019-02-02T18:19:28.637Z,78.30
2019-02-02T18:29:36.405Z,80.60
2019-02-02T18:39:41.969Z,78.40
2019-02-02T18:49:47.410Z,75.90
2019-02-02T19:00:06.137Z,73.00
2019-02-02T19:10:20.893Z,75.60
2019-02-02T19:20:31.156Z,73.40
2019-02-02T19:30:42.095Z,73.20
2019-02-02T19:40:52.724Z,71.10
2019-02-02T19:50:57.586Z,73.20
2019-02-02T20:01:03.008Z,71.70
2019-02-02T20:11:08.415Z,73.60
2019-02-02T20:21:13.818Z,74.80
2019-02-02T20:31:19.304Z,78.50
2019-02-02T20:41:25.028Z,78.10
2019-02-02T20:51:31.518Z,78.00
2019-02-02T21:01:38.548Z,78.00
2019-02-02T21:12:03.619Z,77.50
2019-02-02T21:22:12.017Z,77.80
2019-02-02T21:32:17.484Z,82.60
2019-02-02T21:42:24.291Z,82.10
2019-02-02T21:52:29.694Z,82.60
2019-02-02T22:02:37.330Z,82.80
2019-02-02T22:12:44.332Z,81.00
2019-02-02T22:22:52.939Z,80.30
2019-02-02T22:32:58.371Z,80.30
2019-02-02T22:43:03.684Z,81.80
2019-02-02T22:53:08.968Z,83.80
2019-02-02T23:03:17.401Z,84.80
2019-02-02T23:13:44.060Z,90.20
2019-02-02T23:23:49.770Z,90.90
2019-02-02T23:33:54.745Z,88.60
2019-02-02T23:43:59.825Z,89.10
2019-02-02T23:54:05.011Z,89.80
